Time;durP1;ratioP1;P1;durP2;ratioP2;P2;SDS_P1;SDS_P2;PMS_P1;PMS_P2;Temp;Humidity;BMP_temperature;BMP_pressure;BME280_temperature;BME280_humidity;BME280_pressure;Samples;Min_cycle;Max_cycle;Signal;HPM_P1;HPM_P2
2021/09/11 00:00:41;;;;;;;;;5.50;5.50;;;;;19.39;79.25;101538.25;4985436;28;46025;-69
2021/09/11 00:03:06;;;;;;;;;5.00;5.00;;;;;19.29;79.39;101521.19;4980649;28;45399;-69
2021/09/11 00:05:32;;;;;;;;;5.50;4.50;;;;;19.30;78.86;101528.22;4988430;28;45511;-69
2021/09/11 00:07:57;;;;;;;;;6.75;4.75;;;;;19.38;78.70;101546.38;4989989;28;45803;-69
2021/09/11 00:10:23;;;;;;;;;4.00;4.00;;;;;19.34;79.19;101542.19;4978612;28;45557;-69
2021/09/11 00:12:48;;;;;;;;;1.75;1.75;;;;;19.31;78.47;101545.91;4986453;28;45679;-69
2021/09/11 00:15:15;;;;;;;;;6.00;4.50;;;;;19.40;78.68;101555.09;4993456;28;45455;-69
2021/09/11 00:17:42;;;;;;;;;3.25;3.25;;;;;19.43;78.45;101552.25;4989584;28;45427;-69
2021/09/11 00:20:09;;;;;;;;;5.00;4.00;;;;;19.41;78.28;101543.47;4989672;28;46431;-68
2021/09/11 00:22:34;;;;;;;;;5.00;3.25;;;;;19.50;77.86;101556.19;4986860;28;48026;-69
2021/09/11 00:25:00;;;;;;;;;5.00;4.25;;;;;19.53;78.06;101556.00;4983366;28;45752;-69
2021/09/11 00:27:25;;;;;;;;;4.00;4.00;;;;;19.37;77.90;101510.88;4980173;28;45508;-68
2021/09/11 00:29:50;;;;;;;;;3.75;2.25;;;;;19.61;77.94;101551.03;4989989;28;46188;-69
2021/09/11 00:32:16;;;;;;;;;3.00;3.00;;;;;19.64;77.27;101547.31;4980479;28;45574;-68
2021/09/11 00:34:42;;;;;;;;;4.25;3.00;;;;;19.69;77.71;101539.84;4986339;28;45551;-69
2021/09/11 00:37:07;;;;;;;;;4.75;3.50;;;;;19.70;77.61;101541.56;4988498;28;45656;-69
2021/09/11 00:39:32;;;;;;;;;3.75;3.75;;;;;19.76;77.36;101547.31;4980321;28;45482;-69
2021/09/11 00:41:58;;;;;;;;;5.00;3.50;;;;;19.77;77.07;101549.00;4987871;28;52550;-68
2021/09/11 00:44:23;;;;;;;;;3.00;3.00;;;;;19.82;77.10;101546.03;4985107;28;45521;-68
2021/09/11 00:46:48;;;;;;;;;3.50;3.50;;;;;19.83;76.85;101546.88;4987966;28;45505;-69
2021/09/11 00:49:14;;;;;;;;;3.00;3.00;;;;;19.85;76.66;101547.66;4987218;28;53582;-69
2021/09/11 00:51:40;;;;;;;;;3.50;2.50;;;;;19.86;76.23;101544.03;4995141;28;54411;-69
2021/09/11 00:54:06;;;;;;;;;5.00;4.25;;;;;19.87;76.36;101548.38;4986121;28;45471;-69
2021/09/11 00:56:34;;;;;;;;;2.50;2.50;;;;;19.83;76.50;101533.53;4994915;28;45575;-69
2021/09/11 00:59:00;;;;;;;;;2.50;2.50;;;;;19.86;76.06;101542.19;4996074;28;46143;-68
2021/09/11 01:01:27;;;;;;;;;4.25;4.25;;;;;19.84;76.33;101546.81;4996250;28;45517;-69
2021/09/11 01:03:52;;;;;;;;;6.00;4.25;;;;;19.77;75.57;101533.00;4989859;28;45638;-68
2021/09/11 01:06:18;;;;;;;;;5.00;3.25;;;;;19.77;75.95;101545.50;4989609;28;46812;-68
2021/09/11 01:08:44;;;;;;;;;2.50;2.50;;;;;19.81;75.56;101552.34;4989197;28;46117;-68
2021/09/11 01:11:10;;;;;;;;;3.50;3.50;;;;;19.76;75.66;101554.47;4994499;28;45395;-68
2021/09/11 01:13:37;;;;;;;;;5.50;4.25;;;;;19.73;76.14;101555.53;4994249;28;45411;-68
2021/09/11 01:16:03;;;;;;;;;2.50;2.50;;;;;19.70;75.59;101561.06;4994869;28;46341;-69
2021/09/11 01:18:29;;;;;;;;;4.75;3.75;;;;;19.67;75.49;101555.94;4989120;28;47002;-69
2021/09/11 01:20:55;;;;;;;;;4.50;3.25;;;;;19.63;75.20;101566.91;4985873;28;45400;-68
2021/09/11 01:23:21;;;;;;;;;3.50;2.50;;;;;19.60;75.41;101556.47;4985490;28;45566;-68
2021/09/11 01:25:47;;;;;;;;;4.00;4.00;;;;;19.59;75.50;101557.41;4990641;28;45759;-68
2021/09/11 01:28:13;;;;;;;;;3.75;3.75;;;;;19.51;75.33;101553.41;4979434;28;45361;-68
2021/09/11 01:30:39;;;;;;;;;2.25;2.25;;;;;19.48;75.10;101552.78;4991071;28;45443;-69
2021/09/11 01:33:04;;;;;;;;;3.50;3.25;;;;;19.51;75.57;101557.91;4979460;28;45450;-69
2021/09/11 01:35:29;;;;;;;;;3.00;2.50;;;;;19.49;75.18;101568.69;4989410;28;45371;-68
2021/09/11 01:37:55;;;;;;;;;2.00;2.00;;;;;19.44;74.78;101564.63;4989992;28;46025;-69
2021/09/11 01:40:22;;;;;;;;;3.75;3.50;;;;;19.47;74.80;101567.94;4986520;28;45471;-69
2021/09/11 01:42:48;;;;;;;;;3.75;2.75;;;;;19.45;74.58;101569.84;4990228;28;45437;-69
2021/09/11 01:45:15;;;;;;;;;3.75;2.00;;;;;19.44;75.44;101567.28;4988798;28;45477;-69
2021/09/11 01:47:41;;;;;;;;;3.25;3.00;;;;;19.42;74.85;101569.19;4989644;28;46338;-69
2021/09/11 01:50:09;;;;;;;;;5.25;5.00;;;;;19.41;74.81;101576.31;4992571;28;46127;-69
2021/09/11 01:52:36;;;;;;;;;3.75;3.75;;;;;19.35;75.28;101574.06;4990619;28;45340;-68
2021/09/11 01:55:01;;;;;;;;;3.50;3.50;;;;;19.26;75.14;101572.88;4987080;28;45297;-69
2021/09/11 01:57:27;;;;;;;;;4.75;4.25;;;;;19.21;75.27;101575.00;4984307;28;46552;-69
2021/09/11 01:59:52;;;;;;;;;4.75;2.75;;;;;19.09;75.26;101556.28;4988750;28;45694;-69
2021/09/11 02:02:17;;;;;;;;;2.75;2.75;;;;;19.09;75.05;101567.78;4989670;28;45480;-69
2021/09/11 02:04:43;;;;;;;;;3.75;3.25;;;;;19.03;75.09;101561.06;4988463;28;45353;-68
2021/09/11 02:07:08;;;;;;;;;4.00;3.50;;;;;19.00;75.83;101563.06;4994107;28;46065;-69
2021/09/11 02:09:35;;;;;;;;;3.00;3.00;;;;;18.97;75.85;101558.78;4987792;28;55574;-68
2021/09/11 02:12:00;;;;;;;;;4.00;3.00;;;;;18.94;76.01;101563.47;4989640;28;45537;-69
2021/09/11 02:14:27;;;;;;;;;3.75;3.75;;;;;18.90;76.10;101567.31;4988939;28;46039;-69
2021/09/11 02:16:52;;;;;;;;;3.25;3.25;;;;;18.88;75.77;101571.84;4983970;28;45724;-69
2021/09/11 02:19:17;;;;;;;;;5.00;4.50;;;;;18.89;76.16;101579.72;4990316;28;59353;-68
2021/09/11 02:21:43;;;;;;;;;5.00;5.00;;;;;18.89;75.55;101571.75;4978631;28;45248;-69
2021/09/11 02:24:09;;;;;;;;;3.50;3.50;;;;;18.90;75.83;101573.47;4984876;28;45680;-69
2021/09/11 02:26:34;;;;;;;;;3.50;3.50;;;;;18.88;76.01;101571.84;4990228;28;46101;-68
2021/09/11 02:29:01;;;;;;;;;4.25;4.25;;;;;18.88;76.23;101569.19;4993628;28;45491;-69
2021/09/11 02:31:26;;;;;;;;;7.25;4.00;;;;;18.86;76.16;101571.97;4982654;28;45310;-69
2021/09/11 02:33:52;;;;;;;;;4.50;4.50;;;;;18.86;76.12;101579.94;4991458;28;45409;-69
2021/09/11 02:36:17;;;;;;;;;4.25;4.25;;;;;18.83;75.96;101563.31;4987384;28;45468;-69
2021/09/11 02:38:43;;;;;;;;;4.00;4.00;;;;;18.88;76.30;101569.19;4984384;28;45403;-69
2021/09/11 02:41:09;;;;;;;;;4.50;4.50;;;;;18.87;76.18;101559.50;4989613;28;45527;-69
2021/09/11 02:43:34;;;;;;;;;7.50;4.00;;;;;18.83;76.23;101561.50;4984786;28;45451;-68
2021/09/11 02:45:59;;;;;;;;;4.25;4.25;;;;;18.76;75.93;101557.53;4994696;28;45471;-68
2021/09/11 02:48:25;;;;;;;;;4.50;3.75;;;;;18.69;75.79;101557.06;4984562;28;45618;-69
2021/09/11 02:50:50;;;;;;;;;4.75;4.75;;;;;18.64;76.09;101555.63;4985213;28;46000;-69
2021/09/11 02:53:16;;;;;;;;;4.00;4.00;;;;;18.57;76.26;101555.13;4986431;28;45504;-68
2021/09/11 02:55:41;;;;;;;;;5.00;5.00;;;;;18.47;76.41;101541.56;4992271;28;45487;-68
2021/09/11 02:58:06;;;;;;;;;4.75;4.75;;;;;18.45;76.35;101554.13;4995123;28;45339;-68
2021/09/11 03:00:32;;;;;;;;;5.75;4.75;;;;;18.34;76.64;101542.44;4996496;28;45412;-69
2021/09/11 03:02:57;;;;;;;;;6.00;5.00;;;;;18.35;76.89;101554.78;4985005;28;45521;-68
2021/09/11 03:05:23;;;;;;;;;4.00;4.00;;;;;18.31;77.05;101554.13;4986893;28;47857;-68
2021/09/11 03:07:48;;;;;;;;;6.00;4.00;;;;;18.26;76.95;101556.22;4992081;28;45521;-68
2021/09/11 03:10:13;;;;;;;;;5.00;5.00;;;;;18.12;77.27;101538.47;4986448;28;45515;-68
2021/09/11 03:12:39;;;;;;;;;4.50;4.50;;;;;18.15;77.43;101564.84;4992958;28;45581;-68
2021/09/11 03:15:05;;;;;;;;;4.25;4.25;;;;;18.09;78.04;101562.56;4985452;28;46213;-69
2021/09/11 03:17:31;;;;;;;;;5.75;4.25;;;;;18.04;78.00;101563.81;4982563;28;45566;-68
2021/09/11 03:19:56;;;;;;;;;5.75;5.50;;;;;17.99;78.26;101559.63;4983482;28;45706;-68
2021/09/11 03:22:22;;;;;;;;;7.00;6.00;;;;;17.94;78.21;101559.03;4990371;28;45823;-68
2021/09/11 03:24:47;;;;;;;;;5.25;4.75;;;;;17.91;78.51;101548.59;4994074;28;46328;-68
2021/09/11 03:27:12;;;;;;;;;8.00;8.00;;;;;17.85;78.43;101548.94;4992629;28;45503;-69
2021/09/11 03:29:38;;;;;;;;;6.50;6.50;;;;;17.84;78.50;101554.38;4987038;28;45421;-68
2021/09/11 03:32:04;;;;;;;;;6.50;6.50;;;;;17.81;78.58;101562.56;4986444;28;45506;-68
2021/09/11 03:34:29;;;;;;;;;6.50;6.50;;;;;17.79;78.80;101559.97;4980561;28;46470;-68
2021/09/11 03:36:56;;;;;;;;;6.25;6.00;;;;;17.77;78.66;101563.69;4980045;28;45551;-68
2021/09/11 03:39:21;;;;;;;;;9.00;7.00;;;;;17.74;78.81;101557.56;4984364;28;45431;-68
2021/09/11 03:41:46;;;;;;;;;6.00;6.00;;;;;17.71;78.79;101564.88;4982246;28;45407;-69
2021/09/11 03:44:12;;;;;;;;;7.00;6.00;;;;;17.63;78.78;101560.00;4985238;28;46391;-68
2021/09/11 03:46:37;;;;;;;;;5.00;5.00;;;;;17.65;78.68;101566.09;4992017;28;45997;-69
2021/09/11 03:49:02;;;;;;;;;3.75;3.75;;;;;17.61;79.01;101569.88;4993981;28;45341;-68
2021/09/11 03:51:30;;;;;;;;;5.67;4.67;;;;;17.58;78.58;101561.22;4992555;28;45464;-68
2021/09/11 03:53:56;;;;;;;;;5.25;5.25;;;;;17.55;78.14;101558.75;4982436;28;47159;-69
2021/09/11 03:56:21;;;;;;;;;5.00;5.00;;;;;17.36;78.53;101530.59;4985700;28;45483;-68
2021/09/11 03:58:46;;;;;;;;;5.00;5.00;;;;;17.51;78.10;101562.53;4981575;28;45392;-68
2021/09/11 04:01:11;;;;;;;;;4.00;3.50;;;;;17.49;78.90;101567.94;4995986;28;45410;-68
2021/09/11 04:03:37;;;;;;;;;3.25;3.25;;;;;17.47;78.44;101568.00;4987891;28;46516;-68
2021/09/11 04:06:02;;;;;;;;;4.25;4.25;;;;;17.45;78.52;101569.06;4994778;28;45521;-68
2021/09/11 04:08:30;;;;;;;;;3.75;3.75;;;;;17.38;78.52;101567.69;4991907;28;45444;-68
2021/09/11 04:10:59;;;;;;;;;2.00;2.00;;;;;17.40;78.44;101576.44;4988984;28;45753;-68
2021/09/11 04:13:24;;;;;;;;;6.50;4.00;;;;;17.36;78.26;101572.25;4993525;28;46400;-68
2021/09/11 04:15:50;;;;;;;;;5.00;4.00;;;;;17.39;78.01;101580.91;4990863;28;45430;-68
2021/09/11 04:18:16;;;;;;;;;4.50;3.00;;;;;17.38;78.46;101578.31;4984701;28;45442;-68
2021/09/11 04:20:41;;;;;;;;;3.75;2.50;;;;;17.36;78.63;101575.75;4994483;28;51087;-68
2021/09/11 04:23:06;;;;;;;;;2.00;2.00;;;;;17.32;78.19;101568.06;5008888;28;47359;-68
2021/09/11 04:25:32;;;;;;;;;4.25;3.50;;;;;17.32;78.43;101573.38;4987526;28;45392;-68
2021/09/11 04:27:57;;;;;;;;;5.00;3.25;;;;;17.30;78.53;101578.78;4994383;28;50427;-69
2021/09/11 04:30:22;;;;;;;;;4.00;4.00;;;;;17.29;78.54;101579.72;4991247;28;45756;-68
2021/09/11 04:32:48;;;;;;;;;5.00;4.00;;;;;17.27;78.48;101580.75;4984093;28;45594;-69
2021/09/11 04:35:13;;;;;;;;;4.00;3.00;;;;;17.24;78.47;101586.25;4988499;28;49671;-68
2021/09/11 04:37:39;;;;;;;;;3.50;3.25;;;;;17.21;78.44;101580.16;4988390;28;45463;-68
2021/09/11 04:40:04;;;;;;;;;2.50;2.00;;;;;17.20;78.47;101582.91;4990258;28;45308;-68
2021/09/11 04:42:30;;;;;;;;;3.50;3.00;;;;;17.18;78.26;101585.66;4989998;28;45552;-68
2021/09/11 04:44:55;;;;;;;;;3.50;2.00;;;;;17.18;78.60;101582.16;4987178;28;45704;-68
2021/09/11 04:47:20;;;;;;;;;2.75;2.75;;;;;17.16;78.58;101582.22;4986133;28;46518;-68
2021/09/11 04:49:46;;;;;;;;;2.75;2.50;;;;;17.16;78.61;101584.88;4989875;28;45451;-68
2021/09/11 04:52:11;;;;;;;;;3.00;3.00;;;;;17.16;78.04;101586.66;4993206;28;51782;-68
2021/09/11 04:54:36;;;;;;;;;4.00;3.00;;;;;17.15;77.93;101588.47;4983256;28;45596;-69
2021/09/11 04:57:02;;;;;;;;;2.00;1.00;;;;;17.14;78.26;101585.91;4985489;28;45694;-69
2021/09/11 04:59:27;;;;;;;;;3.50;3.25;;;;;17.12;78.32;101579.81;4987871;28;45462;-69
2021/09/11 05:01:52;;;;;;;;;3.00;2.25;;;;;17.10;78.13;101584.38;4981024;28;46108;-68
2021/09/11 05:04:18;;;;;;;;;4.00;2.00;;;;;17.03;78.27;101581.22;4995431;28;45333;-69
2021/09/11 05:06:43;;;;;;;;;2.75;2.75;;;;;17.05;78.12;101578.47;4979214;28;49550;-68
2021/09/11 05:09:09;;;;;;;;;1.25;1.25;;;;;17.09;78.41;101585.31;4991378;28;45312;-69
2021/09/11 05:11:34;;;;;;;;;3.25;3.25;;;;;17.08;78.25;101584.47;4986155;28;46065;-69
2021/09/11 05:13:59;;;;;;;;;4.25;1.25;;;;;17.04;78.40;101580.25;4981591;28;45679;-69
2021/09/11 05:16:25;;;;;;;;;4.25;3.00;;;;;17.05;78.45;101589.94;4991253;28;45395;-69
2021/09/11 05:18:50;;;;;;;;;2.00;2.00;;;;;17.04;78.68;101596.19;4990994;28;55885;-69
2021/09/11 05:21:15;;;;;;;;;3.00;3.00;;;;;17.00;78.55;101585.81;4990366;28;53048;-69
2021/09/11 05:23:41;;;;;;;;;4.00;3.00;;;;;17.02;78.57;101592.78;4990551;28;45543;-69
2021/09/11 05:26:06;;;;;;;;;3.50;2.00;;;;;17.03;78.33;101593.63;4986506;28;45571;-68
2021/09/11 05:28:32;;;;;;;;;2.00;2.00;;;;;17.01;78.24;101591.03;4979710;28;45377;-69
2021/09/11 05:30:57;;;;;;;;;3.00;3.00;;;;;17.04;78.38;101598.00;4993703;28;46242;-68
2021/09/11 05:33:23;;;;;;;;;4.00;2.75;;;;;17.04;77.81;101596.19;4981286;28;45446;-68
2021/09/11 05:35:48;;;;;;;;;1.00;1.00;;;;;17.06;78.50;101593.44;4988234;28;45383;-68
2021/09/11 05:38:13;;;;;;;;;2.00;2.00;;;;;17.02;78.43;101594.56;4990694;28;45478;-69
2021/09/11 05:40:39;;;;;;;;;2.25;2.25;;;;;17.06;78.39;101599.63;4992223;28;46259;-68
2021/09/11 05:43:04;;;;;;;;;2.00;2.00;;;;;17.07;78.04;101603.13;4978621;28;45387;-68
2021/09/11 05:45:29;;;;;;;;;2.00;2.00;;;;;17.09;78.67;101606.56;4990898;28;45396;-69
2021/09/11 05:47:55;;;;;;;;;3.00;2.25;;;;;17.09;78.18;101604.75;4987886;28;45412;-69
2021/09/11 05:50:20;;;;;;;;;4.00;2.25;;;;;17.10;78.63;101602.97;4990170;28;45409;-69
2021/09/11 05:52:45;;;;;;;;;6.50;3.00;;;;;17.13;78.53;101605.47;4987381;28;45607;-68
2021/09/11 05:55:11;;;;;;;;;4.00;4.00;;;;;17.13;78.36;101606.31;4993503;28;45371;-69
2021/09/11 05:57:36;;;;;;;;;3.50;3.50;;;;;17.14;78.60;101610.66;4989139;28;45464;-68
2021/09/11 06:00:03;;;;;;;;;4.00;2.00;;;;;17.14;78.17;101617.78;4989196;28;46186;-68
2021/09/11 06:02:29;;;;;;;;;3.00;3.00;;;;;17.23;78.60;101617.28;4984888;28;45993;-68
2021/09/11 06:04:54;;;;;;;;;3.75;3.75;;;;;17.28;78.16;101619.63;4984370;28;45362;-69
2021/09/11 06:07:19;;;;;;;;;4.75;3.50;;;;;17.30;77.83;101623.09;4978847;28;48260;-69
2021/09/11 06:09:44;;;;;;;;;2.25;2.25;;;;;17.36;78.18;101634.22;4978612;28;46007;-69
2021/09/11 06:12:10;;;;;;;;;2.00;2.00;;;;;17.40;77.98;101638.41;4980643;28;48847;-69
2021/09/11 06:14:39;;;;;;;;;3.50;3.00;;;;;17.47;77.75;101644.22;4984068;28;45467;-69
2021/09/11 06:17:05;;;;;;;;;4.00;2.00;;;;;17.51;77.98;101648.44;4989407;28;45330;-69
2021/09/11 06:19:31;;;;;;;;;1.75;1.75;;;;;17.59;77.48;101655.94;4991486;28;46249;-69
2021/09/11 06:21:56;;;;;;;;;3.50;3.50;;;;;17.68;77.41;101653.63;4991454;28;45592;-69
2021/09/11 06:24:22;;;;;;;;;3.75;2.50;;;;;17.77;77.73;101656.72;4985819;28;45368;-69
2021/09/11 06:26:47;;;;;;;;;3.00;3.00;;;;;17.84;77.30;101653.59;4981964;28;45360;-69
2021/09/11 06:29:12;;;;;;;;;3.50;3.50;;;;;17.92;76.82;101645.19;4987620;28;53305;-69
2021/09/11 06:31:38;;;;;;;;;2.67;2.00;;;;;17.99;76.69;101650.03;4989585;28;45412;-69
2021/09/11 06:34:03;;;;;;;;;2.00;2.00;;;;;18.05;76.26;101653.28;4997424;28;45557;-69
2021/09/11 06:36:28;;;;;;;;;2.75;2.00;;;;;18.15;76.52;101659.78;4989727;28;45419;-69
2021/09/11 06:38:54;;;;;;;;;1.75;1.75;;;;;18.23;76.00;101657.53;4986465;28;49461;-69
2021/09/11 06:41:19;;;;;;;;;3.25;2.75;;;;;18.31;75.89;101660.56;4986231;28;46601;-69
2021/09/11 06:43:44;;;;;;;;;2.50;2.00;;;;;18.41;75.89;101660.84;4989330;28;51970;-69
2021/09/11 06:46:09;;;;;;;;;2.00;2.00;;;;;18.49;75.58;101659.44;4993861;28;49816;-69
2021/09/11 06:48:35;;;;;;;;;3.00;2.00;;;;;18.72;75.15;101658.03;4988049;28;46081;-69
2021/09/11 06:51:00;;;;;;;;;3.00;2.00;;;;;18.93;74.58;101657.66;4989305;28;45287;-69
2021/09/11 06:53:25;;;;;;;;;3.00;3.00;;;;;19.08;74.30;101655.81;4983541;28;45495;-69
2021/09/11 06:55:51;;;;;;;;;5.50;1.50;;;;;19.25;74.48;101650.25;4984700;28;45546;-69
2021/09/11 06:58:16;;;;;;;;;2.75;2.00;;;;;19.33;74.10;101657.75;4978796;28;45545;-69
2021/09/11 07:00:41;;;;;;;;;4.75;2.00;;;;;19.41;73.44;101666.09;4986320;28;45571;-70
2021/09/11 07:03:07;;;;;;;;;3.00;2.25;;;;;19.50;72.96;101660.19;4980257;28;45530;-71
2021/09/11 07:05:32;;;;;;;;;2.50;1.00;;;;;19.55;72.69;101669.56;4984572;28;45482;-70
2021/09/11 07:07:57;;;;;;;;;4.75;2.00;;;;;19.59;72.95;101672.06;4987308;28;53355;-70
2021/09/11 07:10:23;;;;;;;;;2.00;1.00;;;;;19.71;72.60;101668.59;4980434;28;45693;-70
2021/09/11 07:12:48;;;;;;;;;3.00;1.00;;;;;19.81;72.50;101677.69;4988475;28;45466;-71
2021/09/11 07:15:13;;;;;;;;;1.25;0.50;;;;;19.90;71.40;101681.56;4993987;28;45508;-70
2021/09/11 07:17:40;;;;;;;;;1.25;1.25;;;;;19.96;71.34;101676.66;4992311;28;46328;-70
2021/09/11 07:20:07;;;;;;;;;1.50;1.50;;;;;20.04;71.59;101686.81;4988948;28;45763;-68
2021/09/11 07:22:33;;;;;;;;;3.50;1.00;;;;;20.11;71.57;101680.13;4986139;28;46697;-69
2021/09/11 07:24:58;;;;;;;;;2.25;2.00;;;;;20.19;70.08;101685.78;4980626;28;45305;-70
2021/09/11 07:27:23;;;;;;;;;2.00;2.00;;;;;20.25;70.20;101679.16;4990876;28;54776;-69
2021/09/11 07:29:49;;;;;;;;;1.50;1.00;;;;;20.30;70.26;101677.88;4992295;28;45284;-69
2021/09/11 07:32:14;;;;;;;;;0.75;0.75;;;;;20.37;69.90;101670.31;4993329;28;45775;-69
2021/09/11 07:34:40;;;;;;;;;2.00;2.00;;;;;20.43;69.68;101677.91;4992102;28;45400;-68
2021/09/11 07:37:05;;;;;;;;;2.00;0.75;;;;;20.50;69.27;101673.88;4994365;28;45808;-69
2021/09/11 07:39:30;;;;;;;;;0.75;0.75;;;;;20.53;68.69;101668.31;4983173;28;45917;-68
2021/09/11 07:41:56;;;;;;;;;2.50;1.00;;;;;20.63;68.79;101676.53;4984022;28;46908;-67
2021/09/11 07:44:22;;;;;;;;;0.75;0.75;;;;;20.77;68.04;101688.91;4986574;28;45763;-69
2021/09/11 07:46:47;;;;;;;;;0.00;0.00;;;;;20.89;67.20;101682.72;4986764;28;46295;-67
2021/09/11 07:49:12;;;;;;;;;2.25;0.50;;;;;21.03;67.18;101687.91;4991066;28;46316;-67
2021/09/11 07:51:38;;;;;;;;;1.75;0.75;;;;;21.08;66.58;101669.72;4996128;28;45474;-68
2021/09/11 07:54:03;;;;;;;;;0.75;0.75;;;;;21.30;66.85;101677.09;4985018;28;45362;-68
2021/09/11 07:56:28;;;;;;;;;2.25;1.00;;;;;21.44;66.04;101691.25;4989450;28;49317;-68
2021/09/11 07:58:54;;;;;;;;;0.75;0.75;;;;;21.57;65.37;101684.88;4989579;28;45523;-68
2021/09/11 08:01:19;;;;;;;;;0.25;0.25;;;;;21.73;64.36;101683.75;4986643;28;45297;-68
2021/09/11 08:03:44;;;;;;;;;1.00;1.00;;;;;21.89;64.35;101684.28;4987487;28;45467;-68
2021/09/11 08:06:10;;;;;;;;;1.75;1.00;;;;;22.07;63.68;101682.03;4989652;28;53270;-68
2021/09/11 08:08:39;;;;;;;;;1.00;1.00;;;;;22.24;62.78;101689.69;4989459;28;45415;-68
2021/09/11 08:11:06;;;;;;;;;2.00;0.50;;;;;22.37;62.26;101679.72;4992020;28;45400;-68
2021/09/11 08:13:32;;;;;;;;;0.75;0.75;;;;;22.70;62.13;101693.25;4995589;28;45425;-68
2021/09/11 08:15:57;;;;;;;;;0.75;0.75;;;;;22.86;61.81;101701.78;4992545;28;45447;-68
2021/09/11 08:18:24;;;;;;;;;1.00;1.00;;;;;23.01;61.71;101703.28;4985125;28;45819;-68
2021/09/11 08:20:50;;;;;;;;;0.00;0.00;;;;;23.18;61.45;101708.16;4991099;28;45588;-68
2021/09/11 08:23:18;;;;;;;;;0.00;0.00;;;;;23.46;59.69;101711.25;4992613;28;45521;-68
2021/09/11 08:25:45;;;;;;;;;1.50;1.50;;;;;23.84;59.40;101702.75;4994771;28;45981;-68
2021/09/11 08:28:11;;;;;;;;;2.00;1.00;;;;;24.17;59.69;101701.75;4987754;28;45664;-70
2021/09/11 08:30:36;;;;;;;;;95.25;81.75;;;;;24.48;58.78;101715.25;4990917;28;45419;-69
2021/09/11 08:33:01;;;;;;;;;38.50;30.50;;;;;24.54;57.14;101712.03;4985758;28;45373;-70
2021/09/11 08:35:26;;;;;;;;;3.50;1.50;;;;;24.94;57.96;101721.97;4993440;28;45540;-69
2021/09/11 08:37:52;;;;;;;;;2.00;2.00;;;;;25.46;57.33;101720.06;4991429;28;50907;-70
2021/09/11 08:40:19;;;;;;;;;1.00;1.00;;;;;26.94;56.12;101716.13;4994748;28;45458;-70
2021/09/11 08:42:44;;;;;;;;;1.75;1.00;;;;;29.96;56.74;101713.69;4992173;28;46782;-70
2021/09/11 08:45:14;;;;;;;;;3.00;1.00;;;;;33.47;49.06;101716.81;4993207;28;45478;-69
2021/09/11 08:47:44;;;;;;;;;3.00;0.00;;;;;36.69;45.77;101718.72;4994780;28;46972;-70
2021/09/11 08:50:12;;;;;;;;;1.00;1.00;;;;;39.30;40.88;101718.19;4993643;28;45403;-70
2021/09/11 08:52:40;;;;;;;;;1.00;1.00;;;;;41.40;37.39;101736.72;4999056;28;45501;-70
2021/09/11 08:55:06;;;;;;;;;26.00;23.00;;;;;43.21;34.97;101732.56;4990837;28;47349;-70
2021/09/11 08:57:33;;;;;;;;;0.00;0.00;;;;;44.83;32.14;101734.16;4996114;28;45850;-70
2021/09/11 08:59:59;;;;;;;;;0.00;0.00;;;;;46.19;30.61;101734.69;4989111;28;45778;-70
2021/09/11 09:02:25;;;;;;;;;0.00;0.00;;;;;47.18;31.50;101729.31;4992736;28;45570;-70
2021/09/11 09:04:59;;;;;;;;;0.00;0.00;;;;;48.23;27.11;101733.50;4994168;28;46466;-68
2021/09/11 09:07:43;;;;;;;;;0.00;0.00;;;;;49.25;26.36;101735.03;4994400;28;45432;-67
2021/09/11 09:10:14;;;;;;;;;0.00;0.00;;;;;49.81;24.73;101745.34;4980545;28;45377;-68
2021/09/11 09:12:42;;;;;;;;;0.00;0.00;;;;;50.34;24.45;101744.09;4992223;28;45760;-68
2021/09/11 09:15:11;;;;;;;;;0.25;0.00;;;;;50.83;24.49;101736.97;4994942;28;46400;-68
2021/09/11 09:17:54;;;;;;;;;0.00;0.00;;;;;51.27;21.87;101741.00;4985177;28;48145;-68
2021/09/11 09:20:28;;;;;;;;;0.00;0.00;;;;;51.72;22.17;101739.03;4983319;28;45515;-68
2021/09/11 09:22:57;;;;;;;;;0.75;0.75;;;;;51.93;20.69;101740.19;4994740;28;45799;-68
2021/09/11 09:25:28;;;;;;;;;0.00;0.00;;;;;52.28;20.57;101743.19;4991757;28;46722;-68
2021/09/11 09:28:02;;;;;;;;;1.25;0.00;;;;;52.54;20.95;101729.25;4992160;28;46008;-67
2021/09/11 09:30:47;;;;;;;;;1.00;0.00;;;;;52.61;19.25;101729.59;4984421;28;45531;-68
2021/09/11 09:33:23;;;;;;;;;0.00;0.00;;;;;52.56;18.96;101732.56;5008781;28;45461;-67
2021/09/11 09:35:50;;;;;;;;;0.00;0.00;;;;;52.20;19.00;101729.94;4991248;28;46391;-69
2021/09/11 09:38:15;;;;;;;;;2.00;1.00;;;;;51.42;18.56;101738.66;4986292;28;45380;-69
2021/09/11 09:40:46;;;;;;;;;0.00;0.00;;;;;50.40;19.74;101735.28;4994242;28;45403;-67
2021/09/11 09:43:26;;;;;;;;;0.00;0.00;;;;;49.24;20.32;101732.56;4981869;28;45420;-68
2021/09/11 09:46:02;;;;;;;;;0.50;0.50;;;;;48.18;20.93;101732.72;4993724;28;46007;-68
2021/09/11 09:48:28;;;;;;;;;9.75;7.75;;;;;47.12;20.48;101727.69;4992510;28;45357;-68
2021/09/11 09:51:02;;;;;;;;;1.25;0.25;;;;;45.95;22.45;101728.03;4991132;28;45448;-68
2021/09/11 09:53:27;;;;;;;;;1.00;0.00;;;;;45.07;22.38;101730.97;4994048;28;45430;-67
2021/09/11 09:55:53;;;;;;;;;0.00;0.00;;;;;44.54;22.26;101728.19;4993796;28;45497;-67
2021/09/11 09:58:19;;;;;;;;;0.00;0.00;;;;;44.13;23.47;101727.91;4991342;28;45559;-67
2021/09/11 10:00:45;;;;;;;;;0.00;0.00;;;;;43.60;23.41;101721.38;4988930;28;45585;-67
2021/09/11 10:03:10;;;;;;;;;0.00;0.00;;;;;43.16;23.67;101729.75;4989417;28;45544;-67
2021/09/11 10:05:38;;;;;;;;;0.00;0.00;;;;;43.04;24.19;101718.00;4992717;28;52282;-67
2021/09/11 10:08:09;;;;;;;;;0.50;0.50;;;;;42.87;24.09;101715.31;4987389;28;45725;-67
2021/09/11 10:10:46;;;;;;;;;4.50;1.50;;;;;42.65;24.37;101719.97;4994369;28;45494;-69
2021/09/11 10:13:18;;;;;;;;;1.00;1.00;;;;;42.35;24.39;101712.94;4995093;28;45488;-68
2021/09/11 10:15:57;;;;;;;;;1.75;0.75;;;;;42.10;24.34;101721.63;4990938;28;46955;-68
2021/09/11 10:18:35;;;;;;;;;0.00;0.00;;;;;41.33;24.92;101726.88;4991158;28;45638;-69
2021/09/11 10:21:13;;;;;;;;;1.00;0.00;;;;;40.79;24.43;101724.41;4989934;28;45495;-68
2021/09/11 10:23:39;;;;;;;;;0.00;0.00;;;;;40.39;25.86;101718.78;4986986;28;45651;-69
2021/09/11 10:26:05;;;;;;;;;0.50;0.50;;;;;39.99;25.47;101713.97;4987083;28;45355;-69
2021/09/11 10:28:30;;;;;;;;;1.50;0.50;;;;;39.60;25.80;101716.25;4990791;28;45539;-69
2021/09/11 10:31:09;;;;;;;;;0.25;0.00;;;;;38.98;25.84;101706.53;4985224;28;45840;-68
2021/09/11 10:33:37;;;;;;;;;0.00;0.00;;;;;38.54;26.49;101720.34;4990236;28;45619;-69
2021/09/11 10:36:03;;;;;;;;;0.00;0.00;;;;;37.59;26.69;101715.00;4991904;28;45541;-69
2021/09/11 10:38:40;;;;;;;;;1.00;1.00;;;;;36.54;28.23;101714.34;4999422;28;45424;-70
2021/09/11 10:41:11;;;;;;;;;0.75;0.00;;;;;35.50;28.88;101704.00;4994734;28;45461;-70
2021/09/11 10:43:37;;;;;;;;;0.00;0.00;;;;;34.81;29.55;101711.44;4993680;28;45471;-70
2021/09/11 10:46:08;;;;;;;;;2.00;0.75;;;;;34.10;30.30;101701.50;4993526;28;47161;-70
2021/09/11 10:48:39;;;;;;;;;0.25;0.25;;;;;33.52;30.86;101713.47;4992598;28;45632;-69
2021/09/11 10:51:25;;;;;;;;;1.00;1.00;;;;;32.88;31.56;101708.69;4996278;28;45477;-70
2021/09/11 10:54:02;;;;;;;;;0.00;0.00;;;;;32.36;32.15;101705.00;4994305;28;45442;-70
2021/09/11 10:56:32;;;;;;;;;0.50;0.00;;;;;32.05;32.43;101691.50;4989455;28;46232;-69
2021/09/11 10:59:19;;;;;;;;;1.00;1.00;;;;;32.31;33.03;101704.69;4992250;28;45711;-70
2021/09/11 11:01:54;;;;;;;;;1.25;0.25;;;;;32.45;33.36;101703.06;4986307;28;45462;-69
2021/09/11 11:04:25;;;;;;;;;0.75;0.25;;;;;32.43;33.31;101696.97;4997168;28;45617;-69
2021/09/11 11:06:52;;;;;;;;;0.75;0.75;;;;;32.32;33.62;101706.41;4997004;28;45536;-70
2021/09/11 11:09:18;;;;;;;;;0.00;0.00;;;;;32.09;33.36;101708.31;4996888;28;45512;-69
2021/09/11 11:11:46;;;;;;;;;1.25;1.25;;;;;31.98;33.72;101698.72;4997022;28;45458;-69
2021/09/11 11:14:13;;;;;;;;;2.75;1.75;;;;;32.18;34.29;101701.78;4997229;28;45482;-69
2021/09/11 11:16:54;;;;;;;;;0.50;0.50;;;;;32.08;33.77;101701.19;4992141;28;46233;-69
2021/09/11 11:19:25;;;;;;;;;1.50;1.25;;;;;31.69;34.33;101703.00;4990306;28;45523;-70
2021/09/11 11:21:59;;;;;;;;;1.25;1.25;;;;;31.26;35.14;101704.44;4991113;28;45628;-69